sensor_id;sensor_type;location;lat;lon;timestamp;pressure;altitude;pressure_sealevel;temperature;humidity
12247;BME280;6186;52.022;4.692;2023-03-19T00:01:54;101090.44;;;12.42;100.00
12247;BME280;6186;52.022;4.692;2023-03-19T00:04:20;101102.66;;;12.46;100.00
12247;BME280;6186;52.022;4.692;2023-03-19T00:06:46;101106.22;;;12.45;100.00
12247;BME280;6186;52.022;4.692;2023-03-19T00:09:11;101107.97;;;12.45;100.00
12247;BME280;6186;52.022;4.692;2023-03-19T00:11:37;101108.88;;;12.44;100.00
12247;BME280;6186;52.022;4.692;2023-03-19T00:14:02;101117.72;;;12.43;100.00
12247;BME280;6186;52.022;4.692;2023-03-19T00:16:28;101113.38;;;12.40;100.00
12247;BME280;6186;52.022;4.692;2023-03-19T00:18:53;101122.16;;;12.41;100.00
12247;BME280;6186;52.022;4.692;2023-03-19T00:21:19;101123.94;;;12.40;100.00
12247;BME280;6186;52.022;4.692;2023-03-19T00:23:45;101114.50;;;12.32;100.00
12247;BME280;6186;52.022;4.692;2023-03-19T00:26:11;101118.91;;;12.31;100.00
12247;BME280;6186;52.022;4.692;2023-03-19T00:28:36;101131.16;;;12.34;100.00
12247;BME280;6186;52.022;4.692;2023-03-19T00:31:13;101124.28;;;12.28;100.00
12247;BME280;6186;52.022;4.692;2023-03-19T00:33:39;101124.34;;;12.25;100.00
12247;BME280;6186;52.022;4.692;2023-03-19T00:36:06;101122.72;;;12.21;100.00
12247;BME280;6186;52.022;4.692;2023-03-19T00:38:32;101128.09;;;12.18;100.00
12247;BME280;6186;52.022;4.692;2023-03-19T00:40:58;101132.56;;;12.14;100.00
12247;BME280;6186;52.022;4.692;2023-03-19T00:43:24;101130.94;;;12.10;100.00
12247;BME280;6186;52.022;4.692;2023-03-19T00:45:50;101140.69;;;12.07;100.00
12247;BME280;6186;52.022;4.692;2023-03-19T00:48:16;101137.22;;;12.05;100.00
12247;BME280;6186;52.022;4.692;2023-03-19T00:50:41;101138.16;;;12.02;100.00
12247;BME280;6186;52.022;4.692;2023-03-19T00:53:07;101139.09;;;12.01;100.00
12247;BME280;6186;52.022;4.692;2023-03-19T00:55:32;101128.69;;;11.95;100.00
12247;BME280;6186;52.022;4.692;2023-03-19T00:57:58;101138.31;;;11.96;100.00
12247;BME280;6186;52.022;4.692;2023-03-19T01:00:23;101134.00;;;11.94;100.00
12247;BME280;6186;52.022;4.692;2023-03-19T01:02:48;101140.19;;;11.93;100.00
12247;BME280;6186;52.022;4.692;2023-03-19T01:05:14;101127.97;;;11.89;100.00
12247;BME280;6186;52.022;4.692;2023-03-19T01:07:39;101142.91;;;11.90;100.00
12247;BME280;6186;52.022;4.692;2023-03-19T01:10:05;101135.06;;;11.87;100.00
12247;BME280;6186;52.022;4.692;2023-03-19T01:12:31;101134.22;;;11.86;100.00
12247;BME280;6186;52.022;4.692;2023-03-19T01:14:56;101133.38;;;11.84;100.00
12247;BME280;6186;52.022;4.692;2023-03-19T01:17:22;101132.59;;;11.81;100.00
12247;BME280;6186;52.022;4.692;2023-03-19T01:19:48;101136.13;;;11.80;100.00
12247;BME280;6186;52.022;4.692;2023-03-19T01:22:13;101140.56;;;11.78;100.00
12247;BME280;6186;52.022;4.692;2023-03-19T01:24:41;101141.50;;;11.77;100.00
12247;BME280;6186;52.022;4.692;2023-03-19T01:27:06;101143.31;;;11.75;100.00
12247;BME280;6186;52.022;4.692;2023-03-19T01:29:32;101141.56;;;11.74;100.00
12247;BME280;6186;52.022;4.692;2023-03-19T01:31:57;101135.44;;;11.72;100.00
12247;BME280;6186;52.022;4.692;2023-03-19T01:34:23;101145.06;;;11.74;100.00
12247;BME280;6186;52.022;4.692;2023-03-19T01:36:48;101147.59;;;11.77;100.00
12247;BME280;6186;52.022;4.692;2023-03-19T01:39:13;101146.69;;;11.80;100.00
12247;BME280;6186;52.022;4.692;2023-03-19T01:41:39;101139.69;;;11.79;100.00
12247;BME280;6186;52.022;4.692;2023-03-19T01:46:48;101147.75;;;11.73;100.00
12247;BME280;6186;52.022;4.692;2023-03-19T01:49:14;101148.69;;;11.70;100.00
12247;BME280;6186;52.022;4.692;2023-03-19T01:51:41;101144.38;;;11.65;100.00
12247;BME280;6186;52.022;4.692;2023-03-19T01:54:15;101151.56;;;11.60;100.00
12247;BME280;6186;52.022;4.692;2023-03-19T01:56:42;101149.84;;;11.57;100.00
12247;BME280;6186;52.022;4.692;2023-03-19T01:59:17;101153.41;;;11.55;100.00
12247;BME280;6186;52.022;4.692;2023-03-19T02:01:54;101150.88;;;11.52;100.00
12247;BME280;6186;52.022;4.692;2023-03-19T02:04:21;101150.97;;;11.49;100.00
12247;BME280;6186;52.022;4.692;2023-03-19T02:06:48;101135.28;;;11.43;100.00
12247;BME280;6186;52.022;4.692;2023-03-19T02:09:14;101138.94;;;11.35;100.00
12247;BME280;6186;52.022;4.692;2023-03-19T02:11:40;101140.78;;;11.33;100.00
12247;BME280;6186;52.022;4.692;2023-03-19T02:14:05;101146.94;;;11.32;100.00
12247;BME280;6186;52.022;4.692;2023-03-19T02:16:31;101154.03;;;11.29;100.00
12247;BME280;6186;52.022;4.692;2023-03-19T02:18:57;101155.84;;;11.27;100.00
12247;BME280;6186;52.022;4.692;2023-03-19T02:21:23;101158.53;;;11.25;100.00
12247;BME280;6186;52.022;4.692;2023-03-19T02:23:57;101153.47;;;11.16;100.00
12247;BME280;6186;52.022;4.692;2023-03-19T02:26:26;101161.19;;;11.24;100.00
12247;BME280;6186;52.022;4.692;2023-03-19T02:28:53;101160.28;;;11.25;100.00
12247;BME280;6186;52.022;4.692;2023-03-19T02:31:19;101161.16;;;11.25;100.00
12247;BME280;6186;52.022;4.692;2023-03-19T02:33:56;101160.31;;;11.23;100.00
12247;BME280;6186;52.022;4.692;2023-03-19T02:36:21;101162.13;;;11.21;100.00
12247;BME280;6186;52.022;4.692;2023-03-19T02:38:47;101161.22;;;11.22;100.00
12247;BME280;6186;52.022;4.692;2023-03-19T02:41:13;101161.22;;;11.22;100.00
12247;BME280;6186;52.022;4.692;2023-03-19T02:43:39;101158.66;;;11.19;100.00
12247;BME280;6186;52.022;4.692;2023-03-19T02:46:08;101156.03;;;11.19;100.00
12247;BME280;6186;52.022;4.692;2023-03-19T02:48:35;101154.28;;;11.18;100.00
12247;BME280;6186;52.022;4.692;2023-03-19T02:51:02;101152.63;;;11.14;100.00
12247;BME280;6186;52.022;4.692;2023-03-19T02:53:27;101158.66;;;11.19;100.00
12247;BME280;6186;52.022;4.692;2023-03-19T02:55:52;101168.28;;;11.20;100.00
12247;BME280;6186;52.022;4.692;2023-03-19T02:58:18;101166.53;;;11.21;100.00
12247;BME280;6186;52.022;4.692;2023-03-19T03:00:43;101164.75;;;11.21;100.00
12247;BME280;6186;52.022;4.692;2023-03-19T03:03:09;101171.78;;;11.21;100.00
12247;BME280;6186;52.022;4.692;2023-03-19T03:05:35;101167.44;;;11.18;100.00
12247;BME280;6186;52.022;4.692;2023-03-19T03:08:01;101167.44;;;11.18;100.00
12247;BME280;6186;52.022;4.692;2023-03-19T03:10:28;101154.44;;;11.11;100.00
12247;BME280;6186;52.022;4.692;2023-03-19T03:12:54;101163.13;;;11.16;100.00
12247;BME280;6186;52.022;4.692;2023-03-19T03:15:19;101157.94;;;11.11;100.00
12247;BME280;6186;52.022;4.692;2023-03-19T03:17:45;101157.94;;;11.11;100.00
12247;BME280;6186;52.022;4.692;2023-03-19T03:20:14;101161.53;;;11.09;100.00
12247;BME280;6186;52.022;4.692;2023-03-19T03:22:41;101158.06;;;11.07;100.00
12247;BME280;6186;52.022;4.692;2023-03-19T03:25:07;101164.25;;;11.04;100.00
12247;BME280;6186;52.022;4.692;2023-03-19T03:27:34;101171.34;;;11.02;100.00
12247;BME280;6186;52.022;4.692;2023-03-19T03:29:59;101172.28;;;10.98;100.00
12247;BME280;6186;52.022;4.692;2023-03-19T03:32:25;101170.59;;;10.96;100.00
12247;BME280;6186;52.022;4.692;2023-03-19T03:34:51;101176.84;;;10.90;100.00
12247;BME280;6186;52.022;4.692;2023-03-19T03:37:16;101168.13;;;10.88;100.00
12247;BME280;6186;52.022;4.692;2023-03-19T03:39:42;101162.94;;;10.85;100.00
12247;BME280;6186;52.022;4.692;2023-03-19T03:42:08;101162.06;;;10.85;100.00
12247;BME280;6186;52.022;4.692;2023-03-19T03:44:34;101164.72;;;10.83;100.00
12247;BME280;6186;52.022;4.692;2023-03-19T03:46:59;101161.25;;;10.81;100.00
12247;BME280;6186;52.022;4.692;2023-03-19T03:49:25;101163.00;;;10.82;100.00
12247;BME280;6186;52.022;4.692;2023-03-19T03:51:51;101147.31;;;10.76;100.00
12247;BME280;6186;52.022;4.692;2023-03-19T03:54:16;101161.25;;;10.81;100.00
12247;BME280;6186;52.022;4.692;2023-03-19T03:56:42;101163.88;;;10.81;100.00
12247;BME280;6186;52.022;4.692;2023-03-19T03:59:07;101151.63;;;10.80;100.00
12247;BME280;6186;52.022;4.692;2023-03-19T04:01:34;101156.09;;;10.75;100.00
12247;BME280;6186;52.022;4.692;2023-03-19T04:03:59;101167.34;;;10.83;100.00
12247;BME280;6186;52.022;4.692;2023-03-19T04:06:26;101163.84;;;10.83;100.00
12247;BME280;6186;52.022;4.692;2023-03-19T04:08:52;101159.47;;;10.83;100.00
12247;BME280;6186;52.022;4.692;2023-03-19T04:11:19;101169.16;;;10.81;100.00
12247;BME280;6186;52.022;4.692;2023-03-19T04:13:44;101170.06;;;10.80;100.00
12247;BME280;6186;52.022;4.692;2023-03-19T04:16:10;101164.91;;;10.74;100.00
12247;BME280;6186;52.022;4.692;2023-03-19T04:18:36;101171.91;;;10.75;100.00
12247;BME280;6186;52.022;4.692;2023-03-19T04:21:02;101181.59;;;10.73;100.00
12247;BME280;6186;52.022;4.692;2023-03-19T04:23:28;101183.34;;;10.74;100.00
12247;BME280;6186;52.022;4.692;2023-03-19T04:25:58;101173.91;;;10.64;100.00
12247;BME280;6186;52.022;4.692;2023-03-19T04:28:24;101182.72;;;10.63;100.00
12247;BME280;6186;52.022;4.692;2023-03-19T04:30:49;101182.78;;;10.59;100.00
12247;BME280;6186;52.022;4.692;2023-03-19T04:33:15;101185.50;;;10.54;100.00
12247;BME280;6186;52.022;4.692;2023-03-19T04:35:41;101188.28;;;10.48;100.00
12247;BME280;6186;52.022;4.692;2023-03-19T04:38:07;101190.06;;;10.46;100.00
12247;BME280;6186;52.022;4.692;2023-03-19T04:40:33;101186.66;;;10.39;100.00
12247;BME280;6186;52.022;4.692;2023-03-19T04:42:58;101200.66;;;10.41;100.00
12247;BME280;6186;52.022;4.692;2023-03-19T04:45:23;101205.97;;;10.40;100.00
12247;BME280;6186;52.022;4.692;2023-03-19T04:47:49;101206.84;;;10.39;100.00
12247;BME280;6186;52.022;4.692;2023-03-19T04:50:15;101212.13;;;10.37;100.00
12247;BME280;6186;52.022;4.692;2023-03-19T04:52:41;101200.03;;;10.29;100.00
12247;BME280;6186;52.022;4.692;2023-03-19T04:55:07;101212.22;;;10.34;100.00
12247;BME280;6186;52.022;4.692;2023-03-19T04:57:33;101220.97;;;10.33;100.00
12247;BME280;6186;52.022;4.692;2023-03-19T04:59:58;101220.13;;;10.33;100.00
12247;BME280;6186;52.022;4.692;2023-03-19T05:02:24;101208.81;;;10.28;100.00
12247;BME280;6186;52.022;4.692;2023-03-19T05:04:50;101202.69;;;10.26;100.00
12247;BME280;6186;52.022;4.692;2023-03-19T05:07:15;101219.25;;;10.32;100.00
12247;BME280;6186;52.022;4.692;2023-03-19T05:09:41;101218.34;;;10.33;100.00
12247;BME280;6186;52.022;4.692;2023-03-19T05:12:09;101224.50;;;10.34;100.00
12247;BME280;6186;52.022;4.692;2023-03-19T05:14:34;101221.84;;;10.34;100.00
12247;BME280;6186;52.022;4.692;2023-03-19T05:16:59;101223.59;;;10.35;100.00
12247;BME280;6186;52.022;4.692;2023-03-19T05:19:25;101215.72;;;10.33;100.00
12247;BME280;6186;52.022;4.692;2023-03-19T05:21:50;101223.66;;;10.32;100.00
12247;BME280;6186;52.022;4.692;2023-03-19T05:24:16;101223.66;;;10.32;100.00
12247;BME280;6186;52.022;4.692;2023-03-19T05:26:41;101217.50;;;10.33;100.00
12247;BME280;6186;52.022;4.692;2023-03-19T05:29:07;101204.59;;;10.19;100.00
12247;BME280;6186;52.022;4.692;2023-03-19T05:31:36;101228.91;;;10.32;100.00
12247;BME280;6186;52.022;4.692;2023-03-19T05:34:01;101241.97;;;10.38;100.00
12247;BME280;6186;52.022;4.692;2023-03-19T05:36:26;101241.06;;;10.39;100.00
12247;BME280;6186;52.022;4.692;2023-03-19T05:38:53;101248.94;;;10.39;100.00
12247;BME280;6186;52.022;4.692;2023-03-19T05:41:18;101252.47;;;10.38;100.00
12247;BME280;6186;52.022;4.692;2023-03-19T05:43:43;101258.66;;;10.37;100.00
12247;BME280;6186;52.022;4.692;2023-03-19T05:46:09;101262.13;;;10.37;100.00
12247;BME280;6186;52.022;4.692;2023-03-19T05:48:34;101263.88;;;10.38;100.00
12247;BME280;6186;52.022;4.692;2023-03-19T05:50:59;101259.47;;;10.39;100.00
12247;BME280;6186;52.022;4.692;2023-03-19T05:53:25;101265.59;;;10.39;100.00
12247;BME280;6186;52.022;4.692;2023-03-19T05:55:51;101274.44;;;10.35;100.00
12247;BME280;6186;52.022;4.692;2023-03-19T05:58:16;101265.81;;;10.29;100.00
12247;BME280;6186;52.022;4.692;2023-03-19T06:00:43;101274.56;;;10.28;100.00
12247;BME280;6186;52.022;4.692;2023-03-19T06:03:08;101286.03;;;10.24;100.00
12247;BME280;6186;52.022;4.692;2023-03-19T06:05:34;101293.09;;;10.22;100.00
12247;BME280;6186;52.022;4.692;2023-03-19T06:07:59;101280.88;;;10.19;100.00
12247;BME280;6186;52.022;4.692;2023-03-19T06:10:25;101274.75;;;10.19;100.00
12247;BME280;6186;52.022;4.692;2023-03-19T06:12:51;101279.13;;;10.18;100.00
12247;BME280;6186;52.022;4.692;2023-03-19T06:15:16;101273.03;;;10.18;100.00
12247;BME280;6186;52.022;4.692;2023-03-19T06:17:42;101276.53;;;10.17;100.00
12247;BME280;6186;52.022;4.692;2023-03-19T06:20:09;101271.25;;;10.17;100.00
12247;BME280;6186;52.022;4.692;2023-03-19T06:22:35;101274.75;;;10.19;100.00
12247;BME280;6186;52.022;4.692;2023-03-19T06:25:01;101253.91;;;10.04;100.00
12247;BME280;6186;52.022;4.692;2023-03-19T06:27:26;101283.47;;;10.21;100.00
12247;BME280;6186;52.022;4.692;2023-03-19T06:29:52;101289.66;;;10.20;100.00
12247;BME280;6186;52.022;4.692;2023-03-19T06:32:17;101294.06;;;10.18;100.00
12247;BME280;6186;52.022;4.692;2023-03-19T06:34:43;101294.97;;;10.15;100.00
12247;BME280;6186;52.022;4.692;2023-03-19T06:37:08;101302.91;;;10.14;100.00
12247;BME280;6186;52.022;4.692;2023-03-19T06:39:34;101309.03;;;10.13;100.00
12247;BME280;6186;52.022;4.692;2023-03-19T06:41:59;101316.94;;;10.11;100.00
12247;BME280;6186;52.022;4.692;2023-03-19T06:44:24;101318.72;;;10.09;100.00
12247;BME280;6186;52.022;4.692;2023-03-19T06:46:50;101319.59;;;10.08;100.00
12247;BME280;6186;52.022;4.692;2023-03-19T06:49:15;101329.31;;;10.05;100.00
12247;BME280;6186;52.022;4.692;2023-03-19T06:51:41;101325.81;;;10.04;100.00
12247;BME280;6186;52.022;4.692;2023-03-19T06:54:06;101319.72;;;9.99;100.00
12247;BME280;6186;52.022;4.692;2023-03-19T06:56:32;101331.88;;;10.08;100.00
12247;BME280;6186;52.022;4.692;2023-03-19T06:58:57;101333.59;;;10.13;100.00
12247;BME280;6186;52.022;4.692;2023-03-19T07:01:22;101338.78;;;10.16;100.00
12247;BME280;6186;52.022;4.692;2023-03-19T07:03:48;101336.09;;;10.21;100.00
12247;BME280;6186;52.022;4.692;2023-03-19T07:06:13;101332.63;;;10.19;100.00
12247;BME280;6186;52.022;4.692;2023-03-19T07:08:39;101342.16;;;10.24;100.00
12247;BME280;6186;52.022;4.692;2023-03-19T07:11:10;101350.97;;;10.23;100.00
12247;BME280;6186;52.022;4.692;2023-03-19T07:13:36;101353.56;;;10.25;100.00
12247;BME280;6186;52.022;4.692;2023-03-19T07:16:02;101350.03;;;10.26;100.00
12247;BME280;6186;52.022;4.692;2023-03-19T07:18:27;101348.31;;;10.25;100.00
12247;BME280;6186;52.022;4.692;2023-03-19T07:20:53;101348.34;;;10.22;100.00
12247;BME280;6186;52.022;4.692;2023-03-19T07:23:18;101350.88;;;10.29;100.00
12247;BME280;6186;52.022;4.692;2023-03-19T07:25:44;101349.06;;;10.31;100.00
12247;BME280;6186;52.022;4.692;2023-03-19T07:28:11;101352.53;;;10.35;100.00
12247;BME280;6186;52.022;4.692;2023-03-19T07:30:36;101353.38;;;10.37;100.00
12247;BME280;6186;52.022;4.692;2023-03-19T07:33:03;101364.75;;;10.37;100.00
12247;BME280;6186;52.022;4.692;2023-03-19T07:35:28;101365.59;;;10.39;100.00
12247;BME280;6186;52.022;4.692;2023-03-19T07:37:54;101367.34;;;10.39;100.00
12247;BME280;6186;52.022;4.692;2023-03-19T07:40:20;101357.84;;;10.32;100.00
12247;BME280;6186;52.022;4.692;2023-03-19T07:42:45;101364.78;;;10.36;100.00
12247;BME280;6186;52.022;4.692;2023-03-19T07:45:11;101370.00;;;10.39;100.00
12247;BME280;6186;52.022;4.692;2023-03-19T07:47:36;101378.72;;;10.44;100.00
12247;BME280;6186;52.022;4.692;2023-03-19T07:50:01;101381.31;;;10.46;100.00
12247;BME280;6186;52.022;4.692;2023-03-19T07:52:28;101381.25;;;10.49;100.00
12247;BME280;6186;52.022;4.692;2023-03-19T07:54:53;101369.88;;;10.47;100.00
12247;BME280;6186;52.022;4.692;2023-03-19T07:57:19;101383.81;;;10.53;100.00
12247;BME280;6186;52.022;4.692;2023-03-19T07:59:45;101376.84;;;10.49;100.00
12247;BME280;6186;52.022;4.692;2023-03-19T08:02:11;101390.81;;;10.54;100.00
12247;BME280;6186;52.022;4.692;2023-03-19T08:04:37;101397.81;;;10.55;100.00
12247;BME280;6186;52.022;4.692;2023-03-19T08:07:03;101389.88;;;10.57;100.00
12247;BME280;6186;52.022;4.692;2023-03-19T08:09:28;101392.50;;;10.58;100.00
12247;BME280;6186;52.022;4.692;2023-03-19T08:11:53;101391.63;;;10.59;100.00
12247;BME280;6186;52.022;4.692;2023-03-19T08:14:19;101392.53;;;10.57;100.00
12247;BME280;6186;52.022;4.692;2023-03-19T08:16:47;101409.03;;;10.66;100.00
12247;BME280;6186;52.022;4.692;2023-03-19T08:19:12;101408.16;;;10.66;100.00
12247;BME280;6186;52.022;4.692;2023-03-19T08:21:38;101405.66;;;10.60;100.00
12247;BME280;6186;52.022;4.692;2023-03-19T08:24:03;101413.50;;;10.63;100.00
12247;BME280;6186;52.022;4.692;2023-03-19T08:26:29;101420.50;;;10.62;100.00
12247;BME280;6186;52.022;4.692;2023-03-19T08:28:54;101415.28;;;10.61;100.00
12247;BME280;6186;52.022;4.692;2023-03-19T08:31:20;101418.81;;;10.60;100.00
12247;BME280;6186;52.022;4.692;2023-03-19T08:33:45;101424.94;;;10.60;100.00
12247;BME280;6186;52.022;4.692;2023-03-19T08:36:12;101417.13;;;10.56;100.00
12247;BME280;6186;52.022;4.692;2023-03-19T08:38:38;101431.03;;;10.62;100.00
12247;BME280;6186;52.022;4.692;2023-03-19T08:41:04;101431.94;;;10.61;100.00
12247;BME280;6186;52.022;4.692;2023-03-19T08:43:31;101429.31;;;10.61;100.00
12247;BME280;6186;52.022;4.692;2023-03-19T08:45:58;101434.56;;;10.63;100.00
12247;BME280;6186;52.022;4.692;2023-03-19T08:48:24;101435.44;;;10.63;100.00
12247;BME280;6186;52.022;4.692;2023-03-19T08:50:57;101441.53;;;10.65;100.00
12247;BME280;6186;52.022;4.692;2023-03-19T08:53:23;101450.28;;;10.66;100.00
12247;BME280;6186;52.022;4.692;2023-03-19T08:55:53;101447.66;;;10.67;100.00
12247;BME280;6186;52.022;4.692;2023-03-19T08:58:20;101446.69;;;10.71;100.00
12247;BME280;6186;52.022;4.692;2023-03-19T09:00:47;101453.66;;;10.77;100.00
12247;BME280;6186;52.022;4.692;2023-03-19T09:03:13;101444.81;;;10.79;100.00
12247;BME280;6186;52.022;4.692;2023-03-19T09:05:38;101445.63;;;10.83;100.00
12247;BME280;6186;52.022;4.692;2023-03-19T09:08:04;101450.88;;;10.83;100.00
12247;BME280;6186;52.022;4.692;2023-03-19T09:10:29;101460.53;;;10.84;100.00
12247;BME280;6186;52.022;4.692;2023-03-19T09:12:55;101456.97;;;10.86;100.00
12247;BME280;6186;52.022;4.692;2023-03-19T09:15:20;101454.31;;;10.89;100.00
12247;BME280;6186;52.022;4.692;2023-03-19T09:17:45;101468.31;;;10.91;100.00
12247;BME280;6186;52.022;4.692;2023-03-19T09:20:11;101462.13;;;10.94;100.00
12247;BME280;6186;52.022;4.692;2023-03-19T09:22:36;101464.75;;;10.95;100.00
12247;BME280;6186;52.022;4.692;2023-03-19T09:25:02;101462.06;;;10.97;100.00
12247;BME280;6186;52.022;4.692;2023-03-19T09:27:27;101461.09;;;11.02;100.00
12247;BME280;6186;52.022;4.692;2023-03-19T09:29:53;101466.31;;;11.07;100.00
12247;BME280;6186;52.022;4.692;2023-03-19T09:32:18;101464.50;;;11.07;100.00
12247;BME280;6186;52.022;4.692;2023-03-19T09:34:44;101435.88;;;10.89;100.00
12247;BME280;6186;52.022;4.692;2023-03-19T09:37:10;101467.97;;;11.12;100.00
12247;BME280;6186;52.022;4.692;2023-03-19T09:39:36;101470.56;;;11.14;100.00
12247;BME280;6186;52.022;4.692;2023-03-19T09:44:35;101473.09;;;11.20;100.00
12247;BME280;6186;52.022;4.692;2023-03-19T09:49:46;101492.38;;;11.22;100.00
12247;BME280;6186;52.022;4.692;2023-03-19T09:54:43;101502.81;;;11.26;100.00
12247;BME280;6186;52.022;4.692;2023-03-19T09:57:11;101504.59;;;11.27;100.00
12247;BME280;6186;52.022;4.692;2023-03-19T09:59:37;101513.34;;;11.29;100.00
12247;BME280;6186;52.022;4.692;2023-03-19T10:13:37;101523.81;;;11.32;100.00
12247;BME280;6186;52.022;4.692;2023-03-19T10:16:22;101522.94;;;11.32;100.00
12247;BME280;6186;52.022;4.692;2023-03-19T10:18:50;101532.56;;;11.34;100.00
12247;BME280;6186;52.022;4.692;2023-03-19T10:21:27;101527.31;;;11.33;100.00
12247;BME280;6186;52.022;4.692;2023-03-19T10:24:02;101528.22;;;11.33;100.00
12247;BME280;6186;52.022;4.692;2023-03-19T10:26:31;101524.72;;;11.30;100.00
12247;BME280;6186;52.022;4.692;2023-03-19T10:32:01;101537.78;;;11.37;100.00
12247;BME280;6186;52.022;4.692;2023-03-19T10:34:36;101541.25;;;11.39;100.00
12247;BME280;6186;52.022;4.692;2023-03-19T10:37:18;101543.88;;;11.41;100.00
12247;BME280;6186;52.022;4.692;2023-03-19T10:39:46;101554.44;;;11.41;100.00
12247;BME280;6186;52.022;4.692;2023-03-19T10:42:38;101553.53;;;11.42;100.00
12247;BME280;6186;52.022;4.692;2023-03-19T10:45:13;101544.72;;;11.42;100.00
12247;BME280;6186;52.022;4.692;2023-03-19T10:47:43;101555.25;;;11.43;100.00
12247;BME280;6186;52.022;4.692;2023-03-19T10:50:17;101553.44;;;11.47;100.00
12247;BME280;6186;52.022;4.692;2023-03-19T10:52:42;101542.94;;;11.44;100.00
12247;BME280;6186;52.022;4.692;2023-03-19T10:55:17;101553.38;;;11.50;100.00
12247;BME280;6186;52.022;4.692;2023-03-19T10:57:49;101556.81;;;11.55;100.00
12247;BME280;6186;52.022;4.692;2023-03-19T11:00:17;101559.44;;;11.56;100.00
12247;BME280;6186;52.022;4.692;2023-03-19T11:02:48;101562.03;;;11.58;100.00
12247;BME280;6186;52.022;4.692;2023-03-19T11:05:21;101561.09;;;11.60;100.00
12247;BME280;6186;52.022;4.692;2023-03-19T11:07:49;101561.94;;;11.62;100.00
12247;BME280;6186;52.022;4.692;2023-03-19T11:10:16;101570.78;;;11.60;100.00
12247;BME280;6186;52.022;4.692;2023-03-19T11:12:51;101559.44;;;11.56;100.00
12247;BME280;6186;52.022;4.692;2023-03-19T11:15:25;101541.22;;;11.43;100.00
12247;BME280;6186;52.022;4.692;2023-03-19T11:17:57;101561.22;;;11.54;100.00
12247;BME280;6186;52.022;4.692;2023-03-19T11:20:41;101567.31;;;11.58;100.00
12247;BME280;6186;52.022;4.692;2023-03-19T11:23:16;101567.25;;;11.61;100.00
12247;BME280;6186;52.022;4.692;2023-03-19T11:25:52;101565.41;;;11.64;100.00
12247;BME280;6186;52.022;4.692;2023-03-19T11:28:21;101565.44;;;11.66;100.00
12247;BME280;6186;52.022;4.692;2023-03-19T11:33:55;101570.66;;;11.69;100.00
12247;BME280;6186;52.022;4.692;2023-03-19T11:36:53;101560.88;;;11.74;100.00
12247;BME280;6186;52.022;4.692;2023-03-19T11:40:05;101560.81;;;11.78;100.00
12247;BME280;6186;52.022;4.692;2023-03-19T11:45:36;101565.72;;;11.98;100.00
12247;BME280;6186;52.022;4.692;2023-03-19T11:48:31;101561.97;;;12.08;100.00
12247;BME280;6186;52.022;4.692;2023-03-19T11:51:09;101572.38;;;12.15;100.00
12247;BME280;6186;52.022;4.692;2023-03-19T11:54:14;101565.28;;;12.19;100.00
12247;BME280;6186;52.022;4.692;2023-03-19T11:56:47;101569.59;;;12.23;100.00
12247;BME280;6186;52.022;4.692;2023-03-19T12:07:44;101574.75;;;13.08;100.00
12247;BME280;6186;52.022;4.692;2023-03-19T12:24:26;101568.81;;;13.69;100.00
12247;BME280;6186;52.022;4.692;2023-03-19T12:27:24;101578.81;;;13.58;100.00
12247;BME280;6186;52.022;4.692;2023-03-19T12:35:16;101567.66;;;13.46;100.00
12247;BME280;6186;52.022;4.692;2023-03-19T12:37:58;101583.66;;;13.41;100.00
12247;BME280;6186;52.022;4.692;2023-03-19T12:40:33;101577.66;;;13.35;100.00
12247;BME280;6186;52.022;4.692;2023-03-19T12:43:05;101571.41;;;13.37;100.00
12247;BME280;6186;52.022;4.692;2023-03-19T12:45:44;101579.69;;;14.23;100.00
12247;BME280;6186;52.022;4.692;2023-03-19T12:48:19;101594.34;;;14.94;100.00
12247;BME280;6186;52.022;4.692;2023-03-19T12:50:49;101591.25;;;15.36;100.00
12247;BME280;6186;52.022;4.692;2023-03-19T12:56:26;101585.09;;;15.34;100.00
12247;BME280;6186;52.022;4.692;2023-03-19T12:59:01;101580.41;;;15.16;100.00
12247;BME280;6186;52.022;4.692;2023-03-19T13:01:40;101584.38;;;15.02;100.00
12247;BME280;6186;52.022;4.692;2023-03-19T13:04:32;101591.78;;;14.91;100.00
12247;BME280;6186;52.022;4.692;2023-03-19T13:07:02;101591.41;;;14.74;100.00
12247;BME280;6186;52.022;4.692;2023-03-19T13:09:39;101597.09;;;14.62;100.00
12247;BME280;6186;52.022;4.692;2023-03-19T13:12:28;101601.94;;;14.48;100.00
12247;BME280;6186;52.022;4.692;2023-03-19T13:20:35;101605.41;;;14.18;100.00
12247;BME280;6186;52.022;4.692;2023-03-19T13:23:09;101605.50;;;14.15;100.00
12247;BME280;6186;52.022;4.692;2023-03-19T13:25:40;101602.09;;;14.10;100.00
12247;BME280;6186;52.022;4.692;2023-03-19T13:28:10;101609.16;;;14.11;100.00
12247;BME280;6186;52.022;4.692;2023-03-19T13:30:36;101603.19;;;14.03;100.00
12247;BME280;6186;52.022;4.692;2023-03-19T13:33:06;101597.22;;;13.95;100.00
12247;BME280;6186;52.022;4.692;2023-03-19T13:35:43;101594.66;;;13.92;100.00
12247;BME280;6186;52.022;4.692;2023-03-19T13:38:19;101599.22;;;13.87;100.00
12247;BME280;6186;52.022;4.692;2023-03-19T13:40:54;101599.19;;;13.88;100.00
12247;BME280;6186;52.022;4.692;2023-03-19T13:46:04;101602.59;;;13.92;100.00
12247;BME280;6186;52.022;4.692;2023-03-19T13:48:51;101609.72;;;13.90;100.00
12247;BME280;6186;52.022;4.692;2023-03-19T13:56:16;101606.56;;;13.76;100.00
12247;BME280;6186;52.022;4.692;2023-03-19T13:58:46;101610.22;;;13.72;100.00
12247;BME280;6186;52.022;4.692;2023-03-19T14:06:33;101619.91;;;13.71;100.00
12247;BME280;6186;52.022;4.692;2023-03-19T14:09:01;101627.13;;;13.66;100.00
12247;BME280;6186;52.022;4.692;2023-03-19T14:11:32;101630.66;;;13.65;100.00
12247;BME280;6186;52.022;4.692;2023-03-19T14:14:03;101630.75;;;13.62;100.00
12247;BME280;6186;52.022;4.692;2023-03-19T14:16:50;101629.97;;;13.59;100.00